createdAt,value
2023-11-07T00:00:32.744Z,96193.31
2023-11-07T00:03:00.969Z,96190.94
2023-11-07T00:05:29.046Z,96192.09
2023-11-07T00:07:58.323Z,96199.75
2023-11-07T00:10:29.670Z,96194.00
2023-11-07T00:12:57.664Z,96187.66
2023-11-07T00:15:26.720Z,96202.53
2023-11-07T00:17:55.045Z,96194.97
2023-11-07T00:20:23.524Z,96201.31
2023-11-07T00:22:52.116Z,96193.94
2023-11-07T00:25:21.885Z,96208.34
2023-11-07T00:27:49.951Z,96208.31
2023-11-07T00:30:17.876Z,96203.31
2023-11-07T00:32:45.848Z,96199.00
2023-11-07T00:35:13.946Z,96201.25
2023-11-07T00:37:42.021Z,96198.84
2023-11-07T00:40:11.603Z,96203.25
2023-11-07T00:42:40.935Z,96208.63
2023-11-07T00:45:09.744Z,96202.56
2023-11-07T00:47:37.965Z,96199.06
2023-11-07T00:50:08.204Z,96197.28
2023-11-07T00:52:36.084Z,96198.97
2023-11-07T00:55:04.029Z,96204.66
2023-11-07T00:57:31.877Z,96201.91
2023-11-07T01:00:01.158Z,96211.09
2023-11-07T01:02:29.172Z,96209.41
2023-11-07T01:04:57.106Z,96209.41
2023-11-07T01:07:25.564Z,96207.75
2023-11-07T01:09:53.454Z,96197.91
2023-11-07T01:12:21.370Z,96206.03
2023-11-07T01:14:49.196Z,96219.38
2023-11-07T01:17:18.934Z,96207.69
2023-11-07T01:19:46.835Z,96213.44
2023-11-07T01:22:14.760Z,96210.81
2023-11-07T01:24:42.919Z,96216.53
2023-11-07T01:27:10.910Z,96208.84
2023-11-07T01:29:38.852Z,96214.94
2023-11-07T01:32:07.437Z,96216.00
2023-11-07T01:34:37.031Z,96224.84
2023-11-07T01:37:05.246Z,96223.38
2023-11-07T01:39:33.675Z,96223.16
2023-11-07T01:42:01.590Z,96220.53
2023-11-07T01:44:30.393Z,96222.31
2023-11-07T01:46:58.783Z,96215.63
2023-11-07T01:49:28.855Z,96218.75
2023-11-07T01:51:59.179Z,96215.72
2023-11-07T01:54:29.869Z,96217.72
2023-11-07T01:56:57.899Z,96220.81
2023-11-07T01:59:26.746Z,96224.59
2023-11-07T02:02:01.086Z,96212.53
2023-11-07T02:04:29.162Z,96210.81
2023-11-07T02:06:58.505Z,96207.50
2023-11-07T02:09:26.562Z,96214.97
2023-11-07T02:11:54.480Z,96216.97
2023-11-07T02:14:29.859Z,96219.81
2023-11-07T02:16:58.023Z,96219.28
2023-11-07T02:19:25.878Z,96228.00
2023-11-07T02:21:55.804Z,96218.06
2023-11-07T02:24:25.067Z,96225.06
2023-11-07T02:26:55.430Z,96215.84
2023-11-07T02:29:23.663Z,96220.34
2023-11-07T02:31:52.052Z,96224.88
2023-11-07T02:34:20.418Z,96225.50
2023-11-07T02:36:48.740Z,96237.06
2023-11-07T02:39:16.887Z,96235.28
2023-11-07T02:41:46.849Z,96228.22
2023-11-07T02:44:16.602Z,96230.44
2023-11-07T02:46:44.963Z,96229.59
2023-11-07T02:49:13.082Z,96234.81
2023-11-07T02:51:41.077Z,96220.34
2023-11-07T02:54:08.988Z,96222.44
2023-11-07T02:56:36.938Z,96219.81
2023-11-07T02:59:06.306Z,96224.56
2023-11-07T03:01:34.648Z,96222.53
2023-11-07T03:07:02.004Z,96218.97
2023-11-07T03:09:32.039Z,96222.66
2023-11-07T03:12:00.307Z,96223.72
2023-11-07T03:14:52.827Z,96227.19
2023-11-07T03:17:37.791Z,96226.66
2023-11-07T03:20:10.150Z,96225.28
2023-11-07T03:22:42.765Z,96227.81
2023-11-07T03:25:11.477Z,96221.41
2023-11-07T03:27:52.242Z,96221.41
2023-11-07T03:30:23.597Z,96224.31
2023-11-07T03:32:51.978Z,96229.56
2023-11-07T03:35:21.176Z,96226.94
2023-11-07T03:38:02.978Z,96225.28
2023-11-07T03:40:31.794Z,96226.22
2023-11-07T03:43:00.090Z,96231.59
2023-11-07T03:46:03.306Z,96232.75
2023-11-07T03:49:01.447Z,96228.56
2023-11-07T03:51:39.534Z,96229.94
2023-11-07T03:54:09.131Z,96228.03
2023-11-07T03:56:37.354Z,96217.72
2023-11-07T03:59:06.902Z,96224.56
2023-11-07T04:01:43.342Z,96225.50
2023-11-07T04:04:31.381Z,96228.88
2023-11-07T04:07:00.249Z,96231.69
2023-11-07T04:09:28.564Z,96230.34
2023-11-07T04:11:57.584Z,96229.81
2023-11-07T04:14:38.223Z,96237.59
2023-11-07T04:17:13.134Z,96232.22
2023-11-07T04:19:55.605Z,96229.09
2023-11-07T04:22:24.041Z,96227.19
2023-11-07T04:25:05.957Z,96237.38
2023-11-07T04:27:35.865Z,96236.97
2023-11-07T04:30:11.535Z,96235.28
2023-11-07T04:32:44.411Z,96231.06
2023-11-07T04:35:13.488Z,96232.50
2023-11-07T04:37:43.383Z,96229.06
2023-11-07T04:40:12.834Z,96227.06
2023-11-07T04:42:41.199Z,96227.91
2023-11-07T04:45:14.720Z,96220.34
2023-11-07T04:47:44.499Z,96220.97
2023-11-07T04:50:15.943Z,96223.72
2023-11-07T04:52:47.166Z,96216.69
2023-11-07T04:55:22.551Z,96216.47
2023-11-07T04:57:52.222Z,96211.22
2023-11-07T05:00:21.376Z,96217.31
2023-11-07T05:02:56.422Z,96219.19
2023-11-07T05:05:24.950Z,96221.81
2023-11-07T05:08:01.942Z,96225.06
2023-11-07T05:10:39.166Z,96225.69
2023-11-07T05:13:07.992Z,96221.59
2023-11-07T05:15:36.283Z,96224.13
2023-11-07T05:18:06.542Z,96233.25
2023-11-07T05:20:43.998Z,96229.28
2023-11-07T05:23:14.681Z,96235.75
2023-11-07T05:25:46.788Z,96228.44
2023-11-07T05:28:15.225Z,96228.63
2023-11-07T05:30:43.573Z,96228.53
2023-11-07T05:33:16.445Z,96230.94
2023-11-07T05:35:47.664Z,96226.66
2023-11-07T05:38:16.650Z,96229.06
2023-11-07T05:40:47.126Z,96217.09
2023-11-07T05:43:15.481Z,96222.31
2023-11-07T05:46:09.199Z,96221.59
2023-11-07T05:48:39.339Z,96228.00
2023-11-07T05:51:10.132Z,96229.59
2023-11-07T05:53:38.944Z,96228.09
2023-11-07T05:56:07.825Z,96226.22
2023-11-07T05:58:36.668Z,96219.69
2023-11-07T06:01:05.956Z,96224.22
2023-11-07T06:03:42.348Z,96229.88
2023-11-07T06:06:13.481Z,96221.19
2023-11-07T06:08:42.006Z,96227.16
2023-11-07T06:11:10.274Z,96232.63
2023-11-07T06:13:41.545Z,96233.38
2023-11-07T06:16:10.405Z,96245.44
2023-11-07T06:18:40.897Z,96247.19
2023-11-07T06:21:36.757Z,96248.25
2023-11-07T06:24:07.831Z,96252.44
2023-11-07T06:26:36.267Z,96254.16
2023-11-07T06:29:05.419Z,96257.59
2023-11-07T06:31:34.103Z,96254.88
2023-11-07T06:34:05.317Z,96252.50
2023-11-07T06:36:36.221Z,96253.56
2023-11-07T06:39:04.679Z,96255.97
2023-11-07T06:41:33.217Z,96261.22
2023-11-07T06:44:21.943Z,96260.06
2023-11-07T06:46:53.288Z,96264.25
2023-11-07T06:49:23.246Z,96264.03
2023-11-07T06:51:51.890Z,96259.22
2023-11-07T06:54:22.844Z,96260.38
2023-11-07T06:56:51.319Z,96262.69
2023-11-07T06:59:22.914Z,96273.38
2023-11-07T07:01:52.884Z,96277.59
2023-11-07T07:04:22.867Z,96278.88
2023-11-07T07:06:53.948Z,96276.94
2023-11-07T07:09:27.464Z,96278.50
2023-11-07T07:11:56.780Z,96275.56
2023-11-07T07:14:27.072Z,96271.78
2023-11-07T07:16:55.598Z,96281.03
2023-11-07T07:19:26.340Z,96275.78
2023-11-07T07:22:02.565Z,96275.66
2023-11-07T07:24:32.960Z,96270.09
2023-11-07T07:27:05.997Z,96282.47
2023-11-07T07:29:41.681Z,96292.25
2023-11-07T07:32:15.589Z,96288.34
2023-11-07T07:37:35.625Z,96286.03
2023-11-07T07:40:09.537Z,96294.31
2023-11-07T07:42:38.086Z,96291.47
2023-11-07T07:45:08.573Z,96281.13
2023-11-07T07:47:37.535Z,96288.34
2023-11-07T07:50:11.167Z,96293.03
2023-11-07T07:52:42.251Z,96297.63
2023-11-07T07:55:32.115Z,96291.94
2023-11-07T07:58:08.250Z,96289.38
2023-11-07T08:00:39.622Z,96284.47
2023-11-07T08:03:10.391Z,96289.06
2023-11-07T08:05:45.382Z,96281.69
2023-11-07T08:08:16.304Z,96285.00
2023-11-07T08:10:49.738Z,96287.09
2023-11-07T08:13:20.037Z,96292.94
2023-11-07T08:15:51.544Z,96283.63
2023-11-07T08:18:20.219Z,96290.94
2023-11-07T08:20:51.469Z,96287.28
2023-11-07T08:23:20.171Z,96294.09
2023-11-07T08:25:51.549Z,96291.81
2023-11-07T08:28:20.994Z,96290.88
2023-11-07T08:30:49.362Z,96298.53
2023-11-07T08:33:20.490Z,96293.75
2023-11-07T08:35:51.606Z,96298.47
2023-11-07T08:38:19.938Z,96292.94
2023-11-07T08:40:52.532Z,96296.41
2023-11-07T08:43:21.338Z,96291.50
2023-11-07T08:45:50.579Z,96294.97
2023-11-07T08:48:25.247Z,96295.59
2023-11-07T08:51:02.216Z,96301.63
2023-11-07T08:53:30.476Z,96299.81
2023-11-07T08:55:58.781Z,96294.75
2023-11-07T08:58:29.820Z,96298.84
2023-11-07T09:00:59.394Z,96310.59
2023-11-07T09:03:27.621Z,96307.84
2023-11-07T09:05:57.998Z,96314.22
2023-11-07T09:08:26.882Z,96313.59
2023-11-07T09:10:56.167Z,96312.53
2023-11-07T09:13:28.744Z,96315.41
2023-11-07T09:15:59.329Z,96318.16
2023-11-07T09:18:28.596Z,96309.91
2023-11-07T09:20:58.284Z,96318.03
2023-11-07T09:23:30.149Z,96318.84
2023-11-07T09:26:03.286Z,96326.88
2023-11-07T09:28:33.748Z,96317.91
2023-11-07T09:31:06.269Z,96331.41
2023-11-07T09:33:35.745Z,96329.50
2023-11-07T09:36:06.144Z,96335.13
2023-11-07T09:38:43.023Z,96330.69
2023-11-07T09:41:17.841Z,96335.47
2023-11-07T09:43:47.558Z,96325.63
2023-11-07T09:46:25.997Z,96328.28
2023-11-07T09:48:54.565Z,96331.00
2023-11-07T09:51:26.530Z,96330.91
2023-11-07T09:53:55.589Z,96327.75
2023-11-07T09:56:27.134Z,96326.78
2023-11-07T09:59:01.335Z,96320.88
2023-11-07T10:01:29.664Z,96329.38
2023-11-07T10:04:04.897Z,96322.88
2023-11-07T10:06:40.936Z,96325.16
2023-11-07T10:09:09.361Z,96314.09
2023-11-07T10:11:47.309Z,96326.91
2023-11-07T10:14:18.721Z,96321.72
2023-11-07T10:16:50.828Z,96332.00
2023-11-07T10:19:24.155Z,96330.34
2023-11-07T10:21:54.294Z,96328.34
2023-11-07T10:24:22.880Z,96332.53
2023-11-07T10:26:52.718Z,96327.56
2023-11-07T10:29:37.887Z,96327.34
2023-11-07T10:32:10.475Z,96333.00
2023-11-07T10:34:40.736Z,96345.16
2023-11-07T10:37:13.535Z,96338.78
2023-11-07T10:39:41.833Z,96347.75
2023-11-07T10:42:21.054Z,96343.63
2023-11-07T10:44:50.483Z,96350.84
2023-11-07T10:47:25.461Z,96343.78
2023-11-07T10:49:55.861Z,96352.34
2023-11-07T10:52:25.432Z,96349.25
2023-11-07T10:54:53.753Z,96347.97
2023-11-07T10:57:28.203Z,96346.44
2023-11-07T11:00:07.000Z,96342.47
2023-11-07T11:02:43.287Z,96341.88
2023-11-07T11:05:17.801Z,96342.56
2023-11-07T11:07:52.529Z,96341.53
2023-11-07T11:10:28.964Z,96337.09
2023-11-07T11:12:57.799Z,96340.00
2023-11-07T11:15:26.946Z,96334.00
2023-11-07T11:18:09.379Z,96328.63
2023-11-07T11:20:44.760Z,96336.06
2023-11-07T11:23:21.543Z,96334.03
2023-11-07T11:26:15.305Z,96332.34
2023-11-07T11:28:44.677Z,96328.47
2023-11-07T11:31:16.410Z,96328.00
2023-11-07T11:33:45.212Z,96334.00
2023-11-07T11:36:36.365Z,96335.44
2023-11-07T11:39:44.387Z,96327.50
2023-11-07T11:42:12.969Z,96326.28
2023-11-07T11:44:41.386Z,96324.97
2023-11-07T11:47:12.661Z,96324.81
2023-11-07T11:50:17.116Z,96326.03
2023-11-07T11:52:51.433Z,96332.16
2023-11-07T11:55:23.551Z,96323.19
2023-11-07T11:58:15.482Z,96323.25
2023-11-07T12:00:46.894Z,96318.59
2023-11-07T12:03:19.716Z,96318.06
2023-11-07T12:06:07.840Z,96320.22
2023-11-07T12:08:38.392Z,96317.31
2023-11-07T12:11:08.611Z,96312.34
2023-11-07T12:13:36.910Z,96310.50
2023-11-07T12:16:17.196Z,96309.22
2023-11-07T12:18:48.075Z,96308.63
2023-11-07T12:21:27.377Z,96301.88
2023-11-07T12:23:57.471Z,96296.72
2023-11-07T12:26:40.172Z,96299.09
2023-11-07T12:29:10.038Z,96301.47
2023-11-07T12:31:39.624Z,96301.94
2023-11-07T12:34:09.043Z,96296.09
2023-11-07T12:36:42.965Z,96306.28
2023-11-07T12:39:17.289Z,96304.22
2023-11-07T12:41:47.259Z,96299.56
2023-11-07T12:44:17.642Z,96296.56
2023-11-07T12:46:47.230Z,96301.41
2023-11-07T12:49:22.061Z,96295.88
2023-11-07T12:51:50.434Z,96294.53
2023-11-07T12:54:27.189Z,96290.47
2023-11-07T12:56:56.806Z,96284.34
2023-11-07T12:59:25.299Z,96296.94
2023-11-07T13:01:55.440Z,96290.34
2023-11-07T13:04:24.431Z,96292.50
2023-11-07T13:06:55.609Z,96289.47
2023-11-07T13:09:30.198Z,96302.41
2023-11-07T13:12:12.081Z,96293.50
2023-11-07T13:14:40.859Z,96294.75
2023-11-07T13:17:09.677Z,96294.09
2023-11-07T13:19:41.451Z,96296.13
2023-11-07T13:22:11.279Z,96301.75
2023-11-07T13:24:42.221Z,96311.47
2023-11-07T13:27:11.786Z,96305.47
2023-11-07T13:29:40.199Z,96308.22
2023-11-07T13:32:09.769Z,96307.06
2023-11-07T13:34:38.578Z,96305.66
2023-11-07T13:37:06.841Z,96313.72
2023-11-07T13:39:35.070Z,96300.75
2023-11-07T13:42:03.876Z,96306.16
2023-11-07T13:44:36.315Z,96311.44
2023-11-07T13:47:04.988Z,96311.31
2023-11-07T13:49:36.687Z,96309.19
2023-11-07T13:52:05.781Z,96316.84
2023-11-07T13:54:36.678Z,96316.88
2023-11-07T13:57:05.178Z,96325.25
2023-11-07T13:59:33.490Z,96317.25
2023-11-07T14:02:03.085Z,96316.78
2023-11-07T14:04:31.411Z,96315.22
2023-11-07T14:07:02.421Z,96315.34
2023-11-07T14:09:30.743Z,96310.22
2023-11-07T14:11:59.034Z,96322.44
2023-11-07T14:14:30.373Z,96324.47
2023-11-07T14:16:58.613Z,96324.34
2023-11-07T14:19:29.391Z,96327.25
2023-11-07T14:21:57.739Z,96329.88
2023-11-07T14:24:27.353Z,96339.13
2023-11-07T14:26:56.270Z,96335.66
2023-11-07T14:29:47.409Z,96335.44
2023-11-07T14:32:21.985Z,96338.28
2023-11-07T14:34:54.444Z,96346.00
2023-11-07T14:37:23.139Z,96341.31
2023-11-07T14:39:54.208Z,96341.56
2023-11-07T14:42:23.228Z,96347.94
2023-11-07T14:44:54.956Z,96343.38
2023-11-07T14:47:23.744Z,96348.41
2023-11-07T14:49:53.386Z,96344.47
2023-11-07T14:52:21.309Z,96347.94
2023-11-07T14:54:49.191Z,96339.56
2023-11-07T14:57:17.247Z,96328.28
2023-11-07T14:59:45.389Z,96343.38
2023-11-07T15:02:22.277Z,96344.84
2023-11-07T15:04:57.442Z,96347.69
2023-11-07T15:07:25.374Z,96347.00
2023-11-07T15:09:53.218Z,96354.19
2023-11-07T15:12:22.205Z,96360.41
2023-11-07T15:14:51.485Z,96354.31
2023-11-07T15:17:19.823Z,96365.34
2023-11-07T15:19:48.662Z,96352.50
2023-11-07T15:22:18.005Z,96358.75
2023-11-07T15:24:46.027Z,96358.75
2023-11-07T15:27:14.063Z,96360.94
2023-11-07T15:29:43.366Z,96360.56
2023-11-07T15:32:12.172Z,96362.38
2023-11-07T15:34:40.215Z,96363.81
2023-11-07T15:37:08.202Z,96365.50
2023-11-07T15:39:37.425Z,96374.72
2023-11-07T15:42:05.644Z,96369.47
2023-11-07T15:44:33.574Z,96381.09
2023-11-07T15:47:01.593Z,96376.75
2023-11-07T15:49:29.589Z,96378.66
2023-11-07T15:51:57.720Z,96381.31
2023-11-07T15:54:25.126Z,96388.38
2023-11-07T15:56:54.382Z,96378.06
2023-11-07T15:59:22.236Z,96374.72
2023-11-07T16:01:50.534Z,96380.81
2023-11-07T16:04:18.881Z,96387.06
2023-11-07T16:06:49.531Z,96383.94
2023-11-07T16:09:17.706Z,96391.47
2023-11-07T16:11:45.742Z,96390.75
2023-11-07T16:14:14.946Z,96391.56
2023-11-07T16:16:43.108Z,96398.91
2023-11-07T16:19:11.166Z,96405.25
2023-11-07T16:21:39.152Z,96400.31
2023-11-07T16:24:07.671Z,96407.34
2023-11-07T16:26:39.703Z,96410.13
2023-11-07T16:29:07.605Z,96417.41
2023-11-07T16:31:36.794Z,96414.38
2023-11-07T16:34:04.801Z,96416.88
2023-11-07T16:36:32.825Z,96428.59
2023-11-07T16:39:00.698Z,96436.97
2023-11-07T16:41:28.648Z,96433.84
2023-11-07T16:43:57.281Z,96424.25
2023-11-07T16:46:25.641Z,96434.31
2023-11-07T16:48:54.962Z,96437.66
2023-11-07T16:51:22.979Z,96435.03
2023-11-07T16:53:50.951Z,96439.19
2023-11-07T16:56:18.736Z,96440.97
2023-11-07T16:58:46.650Z,96441.41
2023-11-07T17:01:14.687Z,96444.19
2023-11-07T17:03:42.638Z,96449.53
2023-11-07T17:06:12.026Z,96452.50
2023-11-07T17:08:40.503Z,96451.06
2023-11-07T17:11:08.377Z,96459.19
2023-11-07T17:13:36.336Z,96462.44
2023-11-07T17:16:04.878Z,96465.41
2023-11-07T17:18:33.015Z,96463.09
2023-11-07T17:21:01.061Z,96461.63
2023-11-07T17:23:30.355Z,96469.88
2023-11-07T17:25:58.245Z,96472.25
2023-11-07T17:28:26.075Z,96477.53
2023-11-07T17:30:53.892Z,96479.31
2023-11-07T17:33:23.068Z,96476.06
2023-11-07T17:35:51.256Z,96478.09
2023-11-07T17:38:19.157Z,96485.25
2023-11-07T17:40:49.224Z,96485.47
2023-11-07T17:43:17.763Z,96490.94
2023-11-07T17:45:45.680Z,96498.72
2023-11-07T17:48:13.645Z,96493.56
2023-11-07T17:50:42.262Z,96497.25
2023-11-07T17:53:10.569Z,96502.66
2023-11-07T17:55:40.273Z,96502.13
2023-11-07T17:58:10.569Z,96501.50
2023-11-07T18:00:38.474Z,96507.59
2023-11-07T18:03:06.585Z,96506.13
2023-11-07T18:05:34.648Z,96509.72
2023-11-07T18:08:07.269Z,96507.41
2023-11-07T18:10:35.092Z,96511.09
2023-11-07T18:13:03.234Z,96508.88
2023-11-07T18:15:32.542Z,96506.34
2023-11-07T18:18:00.608Z,96506.34
2023-11-07T18:20:28.635Z,96507.31
2023-11-07T18:22:56.874Z,96509.94
2023-11-07T18:25:25.191Z,96509.41
2023-11-07T18:27:58.164Z,96505.81
2023-11-07T18:30:26.664Z,96510.34
2023-11-07T18:33:33.875Z,96509.09
2023-11-07T18:36:51.594Z,96512.47
2023-11-07T18:40:21.003Z,96516.06
2023-11-07T18:44:19.656Z,96513.41
2023-11-07T18:48:04.833Z,96514.75
2023-11-07T18:51:41.090Z,96522.13
2023-11-07T18:58:56.388Z,96525.72
2023-11-07T19:01:34.722Z,96527.09
2023-11-07T19:04:04.159Z,96524.88
2023-11-07T19:06:37.490Z,96535.59
2023-11-07T19:09:06.243Z,96534.53
2023-11-07T19:11:36.189Z,96530.13
2023-11-07T19:14:06.264Z,96529.81
2023-11-07T19:16:34.884Z,96531.09
2023-11-07T19:19:06.366Z,96542.84
2023-11-07T19:21:40.209Z,96547.56
2023-11-07T19:24:11.564Z,96543.13
2023-11-07T19:26:40.072Z,96547.47
2023-11-07T19:29:13.747Z,96546.81
2023-11-07T19:31:42.034Z,96551.16
2023-11-07T19:34:11.026Z,96549.75
2023-11-07T19:36:42.426Z,96548.38
2023-11-07T19:39:11.442Z,96553.13
2023-11-07T19:41:40.398Z,96555.00
2023-11-07T19:44:09.206Z,96555.50
2023-11-07T19:46:39.190Z,96560.56
2023-11-07T19:49:08.913Z,96557.19
2023-11-07T19:51:39.200Z,96562.88
2023-11-07T19:54:07.863Z,96566.56
2023-11-07T19:56:40.521Z,96564.84
2023-11-07T19:59:11.676Z,96567.91
2023-11-07T20:01:42.554Z,96572.94
2023-11-07T20:04:11.282Z,96567.47
2023-11-07T20:06:39.615Z,96575.34
2023-11-07T20:09:08.188Z,96580.50
2023-11-07T20:11:40.201Z,96594.47
2023-11-07T20:14:11.073Z,96580.88
2023-11-07T20:16:39.439Z,96583.59
2023-11-07T20:19:09.359Z,96584.19
2023-11-07T20:21:37.792Z,96586.22
2023-11-07T20:24:07.069Z,96594.97
2023-11-07T20:26:35.412Z,96582.78
2023-11-07T20:29:04.030Z,96590.75
2023-11-07T20:31:32.453Z,96591.59
2023-11-07T20:34:03.952Z,96596.00
2023-11-07T20:36:38.964Z,96598.38
2023-11-07T20:39:13.420Z,96603.63
2023-11-07T20:41:41.811Z,96594.44
2023-11-07T20:44:10.344Z,96604.97
2023-11-07T20:46:39.324Z,96606.19
2023-11-07T20:49:35.006Z,96609.66
2023-11-07T20:52:45.336Z,96620.47
2023-11-07T20:58:49.280Z,96618.13
2023-11-07T21:04:41.915Z,96622.34
2023-11-07T21:07:14.338Z,96625.06
2023-11-07T21:09:42.674Z,96626.00
2023-11-07T21:12:13.847Z,96626.75
2023-11-07T21:14:42.464Z,96634.72
2023-11-07T21:17:16.975Z,96629.28
2023-11-07T21:19:45.374Z,96633.59
2023-11-07T21:22:17.779Z,96637.81
2023-11-07T21:24:49.028Z,96635.41
2023-11-07T21:27:19.951Z,96624.16
2023-11-07T21:29:48.288Z,96621.53
2023-11-07T21:32:16.739Z,96626.22
2023-11-07T21:34:47.663Z,96624.50
2023-11-07T21:37:17.741Z,96623.00
2023-11-07T21:39:46.196Z,96627.38
2023-11-07T21:42:14.513Z,96628.97
2023-11-07T21:44:43.091Z,96635.38
2023-11-07T21:47:13.845Z,96635.75
2023-11-07T21:49:46.510Z,96634.91
2023-11-07T21:52:15.677Z,96633.50
2023-11-07T21:54:47.332Z,96632.47
2023-11-07T21:57:15.659Z,96627.50
2023-11-07T21:59:44.061Z,96634.44
2023-11-07T22:02:12.265Z,96633.59
2023-11-07T22:04:41.182Z,96632.28
2023-11-07T22:07:09.666Z,96627.69
2023-11-07T22:09:38.057Z,96633.78
2023-11-07T22:12:10.425Z,96625.34
2023-11-07T22:14:38.743Z,96637.69
2023-11-07T22:17:07.804Z,96633.78
2023-11-07T22:19:40.187Z,96628.84
2023-11-07T22:22:12.381Z,96631.06
2023-11-07T22:24:41.979Z,96638.19
2023-11-07T22:27:18.208Z,96633.97
2023-11-07T22:29:46.487Z,96639.31
2023-11-07T22:32:14.849Z,96635.38
2023-11-07T22:34:43.338Z,96631.16
2023-11-07T22:37:11.538Z,96635.47
2023-11-07T22:39:42.936Z,96643.16
2023-11-07T22:42:15.094Z,96639.47
2023-11-07T22:44:45.734Z,96640.25
2023-11-07T22:47:37.914Z,96647.19
2023-11-07T22:50:07.872Z,96644.44
2023-11-07T22:52:36.701Z,96644.44
2023-11-07T22:55:05.393Z,96648.59
2023-11-07T22:57:35.164Z,96649.25
2023-11-07T23:00:11.197Z,96646.25
2023-11-07T23:02:56.080Z,96650.94
2023-11-07T23:05:24.546Z,96648.50
2023-11-07T23:07:55.824Z,96643.75
2023-11-07T23:10:25.805Z,96636.59
2023-11-07T23:12:54.796Z,96632.22
2023-11-07T23:15:24.684Z,96638.84
2023-11-07T23:17:54.718Z,96638.84
2023-11-07T23:20:23.092Z,96637.81
2023-11-07T23:22:51.483Z,96637.91
2023-11-07T23:25:19.859Z,96638.47
2023-11-07T23:27:48.107Z,96643.06
2023-11-07T23:30:17.182Z,96642.88
2023-11-07T23:32:46.979Z,96640.25
2023-11-07T23:35:18.767Z,96632.09
2023-11-07T23:37:47.038Z,96635.47
2023-11-07T23:40:20.213Z,96644.91
2023-11-07T23:42:48.863Z,96636.28
2023-11-07T23:45:17.316Z,96635.75
2023-11-07T23:47:47.238Z,96635.75
2023-11-07T23:50:15.560Z,96640.34
2023-11-07T23:52:43.845Z,96637.44
2023-11-07T23:55:12.210Z,96637.25
2023-11-07T23:57:40.972Z,96634.72
